Lake Nebagamon, Wisconsin
Current Conditions -  °F | °C
As of 7:15 PM on Tuesday 27 Jan 2015 (Local Time) from KOLG Reporting Station
Overcast Overcast  
Wind Chill: 28°   Ceiling: 1800
Heat Index: 28°   Visibility: 10mi
Dew Point: 23°   Wind: 3mph
Humidity: 80%   Direction: 150°SSE
Pressure: 30.14"   Gusts: NA
Location:  46.51°N, 91.7°W
Report Text: KOLG 280115Z AUTO 15003KT 10SM OVC018 M02/M05 A3014 RMK AO1
Loading
Personal Weather Stations






























Interactive Weather Map New forecast layout! Learn more

10-Day Weather Forecast

Advertisements
Track Severe Weather on mobile